sensor_id;sensor_type;location;lat;lon;timestamp;temperature;humidity
66582;SHT31;53438;48.898;2.308;2022-12-15T00:02:01;1.24;68.71
66582;SHT31;53438;48.898;2.308;2022-12-15T00:04:45;1.24;68.68
66582;SHT31;53438;48.898;2.308;2022-12-15T00:07:29;1.23;68.72
66582;SHT31;53438;48.898;2.308;2022-12-15T00:10:13;1.17;69.03
66582;SHT31;53438;48.898;2.308;2022-12-15T00:12:57;1.24;68.98
66582;SHT31;53438;48.898;2.308;2022-12-15T00:15:41;1.04;69.67
66582;SHT31;53438;48.898;2.308;2022-12-15T00:18:25;0.95;69.82
66582;SHT31;53438;48.898;2.308;2022-12-15T00:21:09;0.96;70.12
66582;SHT31;53438;48.898;2.308;2022-12-15T00:23:53;1.00;70.05
66582;SHT31;53438;48.898;2.308;2022-12-15T00:26:37;0.97;70.19
66582;SHT31;53438;48.898;2.308;2022-12-15T00:29:21;1.06;69.94
66582;SHT31;53438;48.898;2.308;2022-12-15T00:32:05;1.04;69.91
66582;SHT31;53438;48.898;2.308;2022-12-15T00:34:49;1.03;70.10
66582;SHT31;53438;48.898;2.308;2022-12-15T00:37:33;0.97;69.97
66582;SHT31;53438;48.898;2.308;2022-12-15T00:40:17;0.93;70.14
66582;SHT31;53438;48.898;2.308;2022-12-15T00:42:42;0.89;70.44
66582;SHT31;53438;48.898;2.308;2022-12-15T00:45:08;0.87;70.62
66582;SHT31;53438;48.898;2.308;2022-12-15T00:47:33;0.78;70.59
66582;SHT31;53438;48.898;2.308;2022-12-15T00:49:59;0.70;70.98
66582;SHT31;53438;48.898;2.308;2022-12-15T00:53:02;0.75;70.88
66582;SHT31;53438;48.898;2.308;2022-12-15T00:55:46;0.73;70.96
66582;SHT31;53438;48.898;2.308;2022-12-15T00:58:30;0.76;70.95
66582;SHT31;53438;48.898;2.308;2022-12-15T04:00:12;-0.66;74.86
66582;SHT31;53438;48.898;2.308;2022-12-15T04:02:41;-0.71;74.77
66582;SHT31;53438;48.898;2.308;2022-12-15T04:05:07;-0.76;75.03
66582;SHT31;53438;48.898;2.308;2022-12-15T04:07:33;-0.72;75.07
66582;SHT31;53438;48.898;2.308;2022-12-15T04:09:58;-0.85;75.39
66582;SHT31;53438;48.898;2.308;2022-12-15T04:12:23;-0.66;74.85
66582;SHT31;53438;48.898;2.308;2022-12-15T04:14:49;-0.66;74.72
66582;SHT31;53438;48.898;2.308;2022-12-15T04:17:14;-0.55;74.71
66582;SHT31;53438;48.898;2.308;2022-12-15T04:19:40;-0.62;74.57
66582;SHT31;53438;48.898;2.308;2022-12-15T04:22:23;-0.55;74.67
66582;SHT31;53438;48.898;2.308;2022-12-15T04:24:49;-0.55;74.52
66582;SHT31;53438;48.898;2.308;2022-12-15T04:27:33;-0.75;74.48
66582;SHT31;53438;48.898;2.308;2022-12-15T04:30:17;-0.75;74.74
66582;SHT31;53438;48.898;2.308;2022-12-15T04:33:02;-0.65;74.53
66582;SHT31;53438;48.898;2.308;2022-12-15T04:35:47;-0.55;74.51
66582;SHT31;53438;48.898;2.308;2022-12-15T04:38:31;-0.69;74.74
66582;SHT31;53438;48.898;2.308;2022-12-15T04:41:16;-0.61;74.54
66582;SHT31;53438;48.898;2.308;2022-12-15T04:44:00;-0.55;74.25
66582;SHT31;53438;48.898;2.308;2022-12-15T04:46:44;-0.62;74.40
66582;SHT31;53438;48.898;2.308;2022-12-15T04:49:28;-0.61;74.60
66582;SHT31;53438;48.898;2.308;2022-12-15T04:52:12;-0.61;74.57
66582;SHT31;53438;48.898;2.308;2022-12-15T04:54:56;-0.52;74.27
66582;SHT31;53438;48.898;2.308;2022-12-15T04:57:40;-0.60;74.62
66582;SHT31;53438;48.898;2.308;2022-12-15T05:00:24;-0.51;74.59
66582;SHT31;53438;48.898;2.308;2022-12-15T05:03:08;-0.40;74.20
66582;SHT31;53438;48.898;2.308;2022-12-15T05:05:52;-0.42;74.16
66582;SHT31;53438;48.898;2.308;2022-12-15T05:08:36;-0.50;74.03
66582;SHT31;53438;48.898;2.308;2022-12-15T05:11:20;-0.54;74.00
66582;SHT31;53438;48.898;2.308;2022-12-15T05:14:04;-0.45;74.24
66582;SHT31;53438;48.898;2.308;2022-12-15T05:16:48;-0.45;74.07
66582;SHT31;53438;48.898;2.308;2022-12-15T05:19:32;-0.42;73.99
66582;SHT31;53438;48.898;2.308;2022-12-15T05:22:16;-0.47;74.44
66582;SHT31;53438;48.898;2.308;2022-12-15T05:25:00;-0.24;73.61
66582;SHT31;53438;48.898;2.308;2022-12-15T05:27:44;-0.23;73.58
66582;SHT31;53438;48.898;2.308;2022-12-15T05:30:28;-0.25;73.35
66582;SHT31;53438;48.898;2.308;2022-12-15T05:33:12;-0.25;73.53
66582;SHT31;53438;48.898;2.308;2022-12-15T05:35:37;-0.37;73.76
66582;SHT31;53438;48.898;2.308;2022-12-15T05:38:06;-0.27;73.45
66582;SHT31;53438;48.898;2.308;2022-12-15T05:40:31;-0.37;73.22
66582;SHT31;53438;48.898;2.308;2022-12-15T05:42:57;-0.35;73.04
66582;SHT31;53438;48.898;2.308;2022-12-15T05:45:23;-0.25;72.73
66582;SHT31;53438;48.898;2.308;2022-12-15T05:47:50;-0.40;73.33
66582;SHT31;53438;48.898;2.308;2022-12-15T05:50:16;-0.30;73.10
66582;SHT31;53438;48.898;2.308;2022-12-15T05:52:41;-0.42;73.26
66582;SHT31;53438;48.898;2.308;2022-12-15T05:55:07;-0.28;73.12
66582;SHT31;53438;48.898;2.308;2022-12-15T05:57:33;-0.17;72.86
66582;SHT31;53438;48.898;2.308;2022-12-15T05:59:59;-0.15;72.75
66582;SHT31;53438;48.898;2.308;2022-12-15T06:02:24;-0.34;72.68
66582;SHT31;53438;48.898;2.308;2022-12-15T06:04:49;-0.27;72.62
66582;SHT31;53438;48.898;2.308;2022-12-15T06:07:15;-0.41;73.16
66582;SHT31;53438;48.898;2.308;2022-12-15T06:09:40;-0.42;73.50
66582;SHT31;53438;48.898;2.308;2022-12-15T06:12:06;-0.37;73.22
66582;SHT31;53438;48.898;2.308;2022-12-15T06:14:31;-0.34;73.03
66582;SHT31;53438;48.898;2.308;2022-12-15T06:16:56;-0.35;73.16
66582;SHT31;53438;48.898;2.308;2022-12-15T06:19:22;-0.33;72.90
66582;SHT31;53438;48.898;2.308;2022-12-15T06:21:48;-0.48;73.19
66582;SHT31;53438;48.898;2.308;2022-12-15T06:24:13;-0.50;73.37
66582;SHT31;53438;48.898;2.308;2022-12-15T06:26:39;-0.41;73.31
66582;SHT31;53438;48.898;2.308;2022-12-15T06:29:07;-0.57;73.45
66582;SHT31;53438;48.898;2.308;2022-12-15T06:31:33;-0.60;73.44
66582;SHT31;53438;48.898;2.308;2022-12-15T06:34:05;-0.58;73.54
66582;SHT31;53438;48.898;2.308;2022-12-15T06:36:31;-0.60;73.40
66582;SHT31;53438;48.898;2.308;2022-12-15T06:38:58;-0.50;73.30
66582;SHT31;53438;48.898;2.308;2022-12-15T06:41:25;-0.40;73.09
66582;SHT31;53438;48.898;2.308;2022-12-15T06:43:52;-0.51;73.24
66582;SHT31;53438;48.898;2.308;2022-12-15T06:46:18;-0.42;73.16
66582;SHT31;53438;48.898;2.308;2022-12-15T06:48:44;-0.42;72.70
66582;SHT31;53438;48.898;2.308;2022-12-15T06:51:10;-0.41;72.92
66582;SHT31;53438;48.898;2.308;2022-12-15T06:53:38;-0.35;72.60
66582;SHT31;53438;48.898;2.308;2022-12-15T06:56:07;-0.27;72.58
66582;SHT31;53438;48.898;2.308;2022-12-15T06:58:34;-0.33;72.70
66582;SHT31;53438;48.898;2.308;2022-12-15T07:01:04;-0.47;73.37
66582;SHT31;53438;48.898;2.308;2022-12-15T07:03:30;-0.61;73.71
66582;SHT31;53438;48.898;2.308;2022-12-15T07:06:08;-0.50;73.44
66582;SHT31;53438;48.898;2.308;2022-12-15T07:08:35;-0.47;73.14
66582;SHT31;53438;48.898;2.308;2022-12-15T07:11:02;-0.60;73.48
66582;SHT31;53438;48.898;2.308;2022-12-15T07:13:28;-0.54;73.34
66582;SHT31;53438;48.898;2.308;2022-12-15T07:15:53;-0.57;72.98
66582;SHT31;53438;48.898;2.308;2022-12-15T07:18:19;-0.73;73.05
66582;SHT31;53438;48.898;2.308;2022-12-15T07:20:44;-0.76;73.27
66582;SHT31;53438;48.898;2.308;2022-12-15T07:23:10;-0.92;73.93
66582;SHT31;53438;48.898;2.308;2022-12-15T07:25:35;-0.91;73.89
66582;SHT31;53438;48.898;2.308;2022-12-15T07:28:01;-0.96;74.09
66582;SHT31;53438;48.898;2.308;2022-12-15T07:30:26;-0.88;73.96
66582;SHT31;53438;48.898;2.308;2022-12-15T07:32:52;-0.86;73.84
66582;SHT31;53438;48.898;2.308;2022-12-15T07:35:17;-0.76;73.64
66582;SHT31;53438;48.898;2.308;2022-12-15T07:37:42;-0.79;73.79
66582;SHT31;53438;48.898;2.308;2022-12-15T07:40:08;-0.69;73.62
66582;SHT31;53438;48.898;2.308;2022-12-15T07:42:34;-0.64;73.61
66582;SHT31;53438;48.898;2.308;2022-12-15T07:44:59;-0.71;73.71
66582;SHT31;53438;48.898;2.308;2022-12-15T07:47:25;-0.66;73.60
66582;SHT31;53438;48.898;2.308;2022-12-15T07:49:52;-0.72;73.53
66582;SHT31;53438;48.898;2.308;2022-12-15T07:52:19;-0.71;73.58
66582;SHT31;53438;48.898;2.308;2022-12-15T07:54:44;-0.72;73.62
66582;SHT31;53438;48.898;2.308;2022-12-15T07:57:09;-0.71;73.48
66582;SHT31;53438;48.898;2.308;2022-12-15T07:59:35;-0.71;73.55
66582;SHT31;53438;48.898;2.308;2022-12-15T08:02:01;-0.76;73.60
66582;SHT31;53438;48.898;2.308;2022-12-15T08:04:29;-0.71;73.64
66582;SHT31;53438;48.898;2.308;2022-12-15T08:06:54;-0.81;73.93
66582;SHT31;53438;48.898;2.308;2022-12-15T08:09:20;-0.83;73.91
66582;SHT31;53438;48.898;2.308;2022-12-15T08:11:45;-0.78;73.84
66582;SHT31;53438;48.898;2.308;2022-12-15T08:14:11;-0.75;73.74
66582;SHT31;53438;48.898;2.308;2022-12-15T08:16:37;-0.58;73.26
66582;SHT31;53438;48.898;2.308;2022-12-15T08:19:04;-0.55;72.75
66582;SHT31;53438;48.898;2.308;2022-12-15T08:21:30;-0.58;72.98
66582;SHT31;53438;48.898;2.308;2022-12-15T08:23:56;-0.57;72.98
66582;SHT31;53438;48.898;2.308;2022-12-15T08:26:22;-0.64;72.97
66582;SHT31;53438;48.898;2.308;2022-12-15T08:28:48;-0.55;72.63
66582;SHT31;53438;48.898;2.308;2022-12-15T08:31:18;-0.60;72.86
66582;SHT31;53438;48.898;2.308;2022-12-15T08:33:45;-0.57;72.79
66582;SHT31;53438;48.898;2.308;2022-12-15T08:36:12;-0.47;72.76
66582;SHT31;53438;48.898;2.308;2022-12-15T08:38:39;-0.57;72.66
66582;SHT31;53438;48.898;2.308;2022-12-15T08:41:13;-0.45;72.65
66582;SHT31;53438;48.898;2.308;2022-12-15T08:43:39;-0.47;72.49
66582;SHT31;53438;48.898;2.308;2022-12-15T08:46:05;-0.38;72.57
66582;SHT31;53438;48.898;2.308;2022-12-15T08:48:30;-0.41;72.55
66582;SHT31;53438;48.898;2.308;2022-12-15T08:50:57;-0.27;72.38
66582;SHT31;53438;48.898;2.308;2022-12-15T08:53:23;-0.28;72.10
66582;SHT31;53438;48.898;2.308;2022-12-15T08:55:49;-0.24;72.26
66582;SHT31;53438;48.898;2.308;2022-12-15T08:58:14;-0.27;72.20
66582;SHT31;53438;48.898;2.308;2022-12-15T09:00:40;-0.28;72.06
66582;SHT31;53438;48.898;2.308;2022-12-15T09:03:05;-0.34;72.05
66582;SHT31;53438;48.898;2.308;2022-12-15T09:05:34;-0.47;72.56
66582;SHT31;53438;48.898;2.308;2022-12-15T09:07:59;-0.48;72.79
66582;SHT31;53438;48.898;2.308;2022-12-15T09:10:25;-0.41;72.83
66582;SHT31;53438;48.898;2.308;2022-12-15T09:12:50;-0.44;72.69
66582;SHT31;53438;48.898;2.308;2022-12-15T09:15:16;-0.57;73.05
66582;SHT31;53438;48.898;2.308;2022-12-15T09:17:42;-0.45;73.14
66582;SHT31;53438;48.898;2.308;2022-12-15T09:20:08;-0.51;73.23
66582;SHT31;53438;48.898;2.308;2022-12-15T09:22:33;-0.44;72.96
66582;SHT31;53438;48.898;2.308;2022-12-15T09:25:01;-0.30;72.80
66582;SHT31;53438;48.898;2.308;2022-12-15T09:27:26;-0.27;72.64
66582;SHT31;53438;48.898;2.308;2022-12-15T09:29:53;-0.28;72.70
66582;SHT31;53438;48.898;2.308;2022-12-15T09:32:18;-0.30;72.88
66582;SHT31;53438;48.898;2.308;2022-12-15T09:34:44;-0.23;72.70
66582;SHT31;53438;48.898;2.308;2022-12-15T09:37:09;-0.25;72.75
66582;SHT31;53438;48.898;2.308;2022-12-15T09:39:35;-0.17;72.51
66582;SHT31;53438;48.898;2.308;2022-12-15T09:42:02;-0.11;72.58
66582;SHT31;53438;48.898;2.308;2022-12-15T09:44:29;-0.02;72.11
66582;SHT31;53438;48.898;2.308;2022-12-15T09:47:17;-0.02;71.96
66582;SHT31;53438;48.898;2.308;2022-12-15T09:49:59;-0.07;72.15
66582;SHT31;53438;48.898;2.308;2022-12-15T09:52:29;0.08;72.21
66582;SHT31;53438;48.898;2.308;2022-12-15T09:54:57;0.19;71.81
66582;SHT31;53438;48.898;2.308;2022-12-15T09:57:34;0.40;71.05
66582;SHT31;53438;48.898;2.308;2022-12-15T10:06:10;0.40;70.44
66582;SHT31;53438;48.898;2.308;2022-12-15T10:08:41;0.45;70.26
66582;SHT31;53438;48.898;2.308;2022-12-15T10:11:24;0.40;70.55
66582;SHT31;53438;48.898;2.308;2022-12-15T10:14:05;0.34;70.55
66582;SHT31;53438;48.898;2.308;2022-12-15T10:22:02;0.37;70.66
66582;SHT31;53438;48.898;2.308;2022-12-15T10:24:29;0.38;70.72
66582;SHT31;53438;48.898;2.308;2022-12-15T10:29:39;0.54;70.36
66582;SHT31;53438;48.898;2.308;2022-12-15T10:32:22;0.54;69.94
66582;SHT31;53438;48.898;2.308;2022-12-15T10:34:51;0.40;70.35
66582;SHT31;53438;48.898;2.308;2022-12-15T10:37:19;0.49;70.33
66582;SHT31;53438;48.898;2.308;2022-12-15T10:39:47;0.44;70.63
66582;SHT31;53438;48.898;2.308;2022-12-15T10:42:20;0.51;70.56
66582;SHT31;53438;48.898;2.308;2022-12-15T10:47:28;0.64;70.31
66582;SHT31;53438;48.898;2.308;2022-12-15T10:49:55;0.70;69.91
66582;SHT31;53438;48.898;2.308;2022-12-15T10:52:39;0.76;69.64
66582;SHT31;53438;48.898;2.308;2022-12-15T10:55:32;0.82;69.55
66582;SHT31;53438;48.898;2.308;2022-12-15T10:58:02;0.89;69.05
66582;SHT31;53438;48.898;2.308;2022-12-15T11:00:30;0.90;69.07
66582;SHT31;53438;48.898;2.308;2022-12-15T11:02:56;0.93;68.90
66582;SHT31;53438;48.898;2.308;2022-12-15T11:05:22;0.92;68.71
66582;SHT31;53438;48.898;2.308;2022-12-15T11:07:50;0.95;68.84
66582;SHT31;53438;48.898;2.308;2022-12-15T11:10:25;1.04;69.15
66582;SHT31;53438;48.898;2.308;2022-12-15T11:13:17;1.17;68.53
66582;SHT31;53438;48.898;2.308;2022-12-15T11:15:50;1.23;68.38
66582;SHT31;53438;48.898;2.308;2022-12-15T11:23:55;1.07;69.13
66582;SHT31;53438;48.898;2.308;2022-12-15T11:31:59;1.15;69.08
66582;SHT31;53438;48.898;2.308;2022-12-15T11:34:32;1.10;69.11
66582;SHT31;53438;48.898;2.308;2022-12-15T11:39:36;1.13;69.11
66582;SHT31;53438;48.898;2.308;2022-12-15T11:42:12;1.23;68.65
66582;SHT31;53438;48.898;2.308;2022-12-15T11:45:13;1.19;68.85
66582;SHT31;53438;48.898;2.308;2022-12-15T11:47:51;1.19;68.31
66582;SHT31;53438;48.898;2.308;2022-12-15T11:50:28;1.08;68.64
66582;SHT31;53438;48.898;2.308;2022-12-15T11:56:20;1.26;67.92
66582;SHT31;53438;48.898;2.308;2022-12-15T11:59:16;1.20;67.81
66582;SHT31;53438;48.898;2.308;2022-12-15T12:04:29;1.37;67.59
66582;SHT31;53438;48.898;2.308;2022-12-15T12:12:39;1.26;67.04
66582;SHT31;53438;48.898;2.308;2022-12-15T12:17:50;1.33;67.00
66582;SHT31;53438;48.898;2.308;2022-12-15T12:20:24;1.50;66.40
66582;SHT31;53438;48.898;2.308;2022-12-15T12:23:01;1.47;65.94
66582;SHT31;53438;48.898;2.308;2022-12-15T12:25:32;1.43;65.72
66582;SHT31;53438;48.898;2.308;2022-12-15T12:28:14;1.46;65.65
66582;SHT31;53438;48.898;2.308;2022-12-15T12:30:45;1.57;65.41
66582;SHT31;53438;48.898;2.308;2022-12-15T12:33:34;1.44;65.17
66582;SHT31;53438;48.898;2.308;2022-12-15T12:36:09;1.59;64.44
66582;SHT31;53438;48.898;2.308;2022-12-15T12:38:48;1.50;64.49
66582;SHT31;53438;48.898;2.308;2022-12-15T12:41:36;1.58;64.59
66582;SHT31;53438;48.898;2.308;2022-12-15T12:44:09;1.67;63.92
66582;SHT31;53438;48.898;2.308;2022-12-15T12:46:43;1.62;63.74
66582;SHT31;53438;48.898;2.308;2022-12-15T12:49:47;1.67;63.81
66582;SHT31;53438;48.898;2.308;2022-12-15T12:52:21;1.61;63.88
66582;SHT31;53438;48.898;2.308;2022-12-15T12:57:38;1.65;64.00
66582;SHT31;53438;48.898;2.308;2022-12-15T13:05:22;1.68;64.24
66582;SHT31;53438;48.898;2.308;2022-12-15T13:10:36;1.71;64.01
66582;SHT31;53438;48.898;2.308;2022-12-15T13:15:45;1.89;63.66
66582;SHT31;53438;48.898;2.308;2022-12-15T13:18:19;1.88;63.95
66582;SHT31;53438;48.898;2.308;2022-12-15T13:20:48;1.92;63.81
66582;SHT31;53438;48.898;2.308;2022-12-15T13:34:36;2.09;62.37
66582;SHT31;53438;48.898;2.308;2022-12-15T13:36:56;2.22;61.64
66582;SHT31;53438;48.898;2.308;2022-12-15T13:44:30;2.36;61.54
66582;SHT31;53438;48.898;2.308;2022-12-15T13:47:05;2.36;60.85
66582;SHT31;53438;48.898;2.308;2022-12-15T13:49:35;2.37;60.32
66582;SHT31;53438;48.898;2.308;2022-12-15T13:52:13;2.32;60.32
66582;SHT31;53438;48.898;2.308;2022-12-15T13:54:43;2.32;60.20
66582;SHT31;53438;48.898;2.308;2022-12-15T13:57:15;2.26;60.08
66582;SHT31;53438;48.898;2.308;2022-12-15T14:00:00;2.43;60.06
66582;SHT31;53438;48.898;2.308;2022-12-15T14:02:31;2.37;59.49
66582;SHT31;53438;48.898;2.308;2022-12-15T14:12:55;2.53;57.09
66582;SHT31;53438;48.898;2.308;2022-12-15T14:15:31;2.56;57.06
66582;SHT31;53438;48.898;2.308;2022-12-15T14:17:57;2.64;55.69
66582;SHT31;53438;48.898;2.308;2022-12-15T14:20:27;2.75;56.22
66582;SHT31;53438;48.898;2.308;2022-12-15T14:22:53;2.77;55.02
66582;SHT31;53438;48.898;2.308;2022-12-15T14:25:28;2.71;54.44
66582;SHT31;53438;48.898;2.308;2022-12-15T14:27:54;2.83;53.16
66582;SHT31;53438;48.898;2.308;2022-12-15T14:30:23;2.84;53.29
66582;SHT31;53438;48.898;2.308;2022-12-15T14:32:57;2.88;52.50
66582;SHT31;53438;48.898;2.308;2022-12-15T14:35:30;2.87;52.06
66582;SHT31;53438;48.898;2.308;2022-12-15T14:38:00;2.92;51.88
66582;SHT31;53438;48.898;2.308;2022-12-15T14:40:27;2.91;50.65
66582;SHT31;53438;48.898;2.308;2022-12-15T14:42:53;2.94;50.94
66582;SHT31;53438;48.898;2.308;2022-12-15T14:45:22;2.97;51.10
66582;SHT31;53438;48.898;2.308;2022-12-15T14:47:55;2.94;50.64
66582;SHT31;53438;48.898;2.308;2022-12-15T14:50:22;2.97;49.76
66582;SHT31;53438;48.898;2.308;2022-12-15T14:52:53;3.04;49.33
66582;SHT31;53438;48.898;2.308;2022-12-15T14:55:33;3.05;49.48
66582;SHT31;53438;48.898;2.308;2022-12-15T14:57:59;3.05;48.23
66582;SHT31;53438;48.898;2.308;2022-12-15T15:00:31;2.91;45.93
66582;SHT31;53438;48.898;2.308;2022-12-15T15:05:44;2.92;42.98
66582;SHT31;53438;48.898;2.308;2022-12-15T15:08:18;2.91;43.79
66582;SHT31;53438;48.898;2.308;2022-12-15T15:10:48;2.83;43.86
66582;SHT31;53438;48.898;2.308;2022-12-15T15:13:23;2.91;43.55
66582;SHT31;53438;48.898;2.308;2022-12-15T15:16:00;2.88;44.28
66582;SHT31;53438;48.898;2.308;2022-12-15T15:18:28;2.81;44.46
66582;SHT31;53438;48.898;2.308;2022-12-15T15:20:59;2.74;45.17
66582;SHT31;53438;48.898;2.308;2022-12-15T15:23:27;2.75;45.06
66582;SHT31;53438;48.898;2.308;2022-12-15T15:25:55;2.78;44.86
66582;SHT31;53438;48.898;2.308;2022-12-15T15:28:25;2.77;44.40
66582;SHT31;53438;48.898;2.308;2022-12-15T15:33:17;2.73;42.87
66582;SHT31;53438;48.898;2.308;2022-12-15T15:35:49;2.74;42.85
66582;SHT31;53438;48.898;2.308;2022-12-15T15:38:25;2.67;43.05
66582;SHT31;53438;48.898;2.308;2022-12-15T15:40:54;2.70;43.39
66582;SHT31;53438;48.898;2.308;2022-12-15T15:43:21;2.65;43.10
66582;SHT31;53438;48.898;2.308;2022-12-15T15:45:48;2.62;43.78
66582;SHT31;53438;48.898;2.308;2022-12-15T15:48:20;2.60;44.81
66582;SHT31;53438;48.898;2.308;2022-12-15T15:50:48;2.62;45.82
66582;SHT31;53438;48.898;2.308;2022-12-15T15:53:17;2.61;46.61
66582;SHT31;53438;48.898;2.308;2022-12-15T15:55:46;2.64;47.62
66582;SHT31;53438;48.898;2.308;2022-12-15T15:58:12;2.56;48.98
66582;SHT31;53438;48.898;2.308;2022-12-15T16:00:38;2.65;49.89
66582;SHT31;53438;48.898;2.308;2022-12-15T16:03:04;2.61;50.53
66582;SHT31;53438;48.898;2.308;2022-12-15T16:05:29;2.57;51.06
66582;SHT31;53438;48.898;2.308;2022-12-15T16:07:56;2.53;51.72
66582;SHT31;53438;48.898;2.308;2022-12-15T16:10:22;2.56;52.59
66582;SHT31;53438;48.898;2.308;2022-12-15T16:12:51;2.51;53.54
66582;SHT31;53438;48.898;2.308;2022-12-15T16:15:20;2.43;54.42
66582;SHT31;53438;48.898;2.308;2022-12-15T16:17:47;2.53;55.69
66582;SHT31;53438;48.898;2.308;2022-12-15T16:20:14;2.47;56.61
66582;SHT31;53438;48.898;2.308;2022-12-15T16:22:43;2.54;57.16
66582;SHT31;53438;48.898;2.308;2022-12-15T16:25:15;2.44;58.50
66582;SHT31;53438;48.898;2.308;2022-12-15T16:27:41;2.41;59.35
66582;SHT31;53438;48.898;2.308;2022-12-15T16:30:18;2.40;59.90
66582;SHT31;53438;48.898;2.308;2022-12-15T16:32:44;2.41;60.60
66582;SHT31;53438;48.898;2.308;2022-12-15T16:35:09;2.44;61.26
66582;SHT31;53438;48.898;2.308;2022-12-15T16:37:35;2.37;62.04
66582;SHT31;53438;48.898;2.308;2022-12-15T16:40:01;2.36;62.78
66582;SHT31;53438;48.898;2.308;2022-12-15T16:42:26;2.50;63.14
66582;SHT31;53438;48.898;2.308;2022-12-15T16:44:52;2.44;63.76
66582;SHT31;53438;48.898;2.308;2022-12-15T16:47:17;2.47;64.08
66582;SHT31;53438;48.898;2.308;2022-12-15T16:49:43;2.40;64.55
66582;SHT31;53438;48.898;2.308;2022-12-15T16:52:19;2.36;64.93
66582;SHT31;53438;48.898;2.308;2022-12-15T16:54:47;2.33;65.38
66582;SHT31;53438;48.898;2.308;2022-12-15T16:57:13;2.32;65.61
66582;SHT31;53438;48.898;2.308;2022-12-15T16:59:39;2.30;65.82
66582;SHT31;53438;48.898;2.308;2022-12-15T17:02:25;2.32;66.25
66582;SHT31;53438;48.898;2.308;2022-12-15T17:04:50;2.25;66.65
66582;SHT31;53438;48.898;2.308;2022-12-15T17:07:16;2.22;66.78
66582;SHT31;53438;48.898;2.308;2022-12-15T17:09:42;2.16;67.42
66582;SHT31;53438;48.898;2.308;2022-12-15T17:12:11;2.16;67.79
66582;SHT31;53438;48.898;2.308;2022-12-15T17:14:37;2.09;68.77
66582;SHT31;53438;48.898;2.308;2022-12-15T17:17:11;2.09;68.90
66582;SHT31;53438;48.898;2.308;2022-12-15T17:19:37;2.13;68.96
66582;SHT31;53438;48.898;2.308;2022-12-15T17:22:03;2.15;69.49
66582;SHT31;53438;48.898;2.308;2022-12-15T17:24:28;2.16;69.80
66582;SHT31;53438;48.898;2.308;2022-12-15T17:26:54;2.29;69.63
66582;SHT31;53438;48.898;2.308;2022-12-15T17:29:22;2.27;69.77
66582;SHT31;53438;48.898;2.308;2022-12-15T17:31:49;2.26;69.96
66582;SHT31;53438;48.898;2.308;2022-12-15T17:34:27;2.26;70.06
66582;SHT31;53438;48.898;2.308;2022-12-15T17:36:55;2.27;70.21
66582;SHT31;53438;48.898;2.308;2022-12-15T17:39:22;2.22;70.58
66582;SHT31;53438;48.898;2.308;2022-12-15T17:41:47;2.27;70.53
66582;SHT31;53438;48.898;2.308;2022-12-15T17:44:25;2.26;70.66
66582;SHT31;53438;48.898;2.308;2022-12-15T17:46:53;2.23;70.79
66582;SHT31;53438;48.898;2.308;2022-12-15T17:49:19;2.23;70.80
66582;SHT31;53438;48.898;2.308;2022-12-15T17:51:45;2.15;71.08
66582;SHT31;53438;48.898;2.308;2022-12-15T17:54:13;2.16;71.15
66582;SHT31;53438;48.898;2.308;2022-12-15T17:56:41;2.15;71.06
66582;SHT31;53438;48.898;2.308;2022-12-15T17:59:16;2.19;70.91
66582;SHT31;53438;48.898;2.308;2022-12-15T18:01:45;2.06;71.25
66582;SHT31;53438;48.898;2.308;2022-12-15T18:04:11;2.02;71.21
66582;SHT31;53438;48.898;2.308;2022-12-15T18:06:38;2.15;70.97
66582;SHT31;53438;48.898;2.308;2022-12-15T18:09:14;2.20;70.91
66582;SHT31;53438;48.898;2.308;2022-12-15T18:11:40;2.09;71.23
66582;SHT31;53438;48.898;2.308;2022-12-15T18:14:15;2.20;71.08
66582;SHT31;53438;48.898;2.308;2022-12-15T18:16:41;2.20;70.62
66582;SHT31;53438;48.898;2.308;2022-12-15T18:19:07;2.09;70.90
66582;SHT31;53438;48.898;2.308;2022-12-15T18:21:32;2.03;70.74
66582;SHT31;53438;48.898;2.308;2022-12-15T18:23:58;2.12;70.53
66582;SHT31;53438;48.898;2.308;2022-12-15T18:26:23;2.10;70.31
66582;SHT31;53438;48.898;2.308;2022-12-15T18:28:50;2.03;70.57
66582;SHT31;53438;48.898;2.308;2022-12-15T18:31:21;2.13;70.52
66582;SHT31;53438;48.898;2.308;2022-12-15T18:33:47;2.03;70.50
66582;SHT31;53438;48.898;2.308;2022-12-15T18:36:14;1.95;70.65
66582;SHT31;53438;48.898;2.308;2022-12-15T18:38:40;1.91;70.49
66582;SHT31;53438;48.898;2.308;2022-12-15T18:41:10;1.86;70.57
66582;SHT31;53438;48.898;2.308;2022-12-15T18:43:36;1.85;70.74
66582;SHT31;53438;48.898;2.308;2022-12-15T18:46:02;1.92;70.24
66582;SHT31;53438;48.898;2.308;2022-12-15T18:48:30;1.92;70.18
66582;SHT31;53438;48.898;2.308;2022-12-15T18:50:58;1.82;69.99
66582;SHT31;53438;48.898;2.308;2022-12-15T18:53:33;1.76;70.31
66582;SHT31;53438;48.898;2.308;2022-12-15T18:56:00;1.74;70.14
66582;SHT31;53438;48.898;2.308;2022-12-15T18:58:31;1.75;70.22
66582;SHT31;53438;48.898;2.308;2022-12-15T19:01:00;1.72;69.86
66582;SHT31;53438;48.898;2.308;2022-12-15T19:03:26;1.72;69.81
66582;SHT31;53438;48.898;2.308;2022-12-15T19:06:24;1.72;70.01
66582;SHT31;53438;48.898;2.308;2022-12-15T19:09:04;1.74;69.91
66582;SHT31;53438;48.898;2.308;2022-12-15T19:11:30;1.71;69.93
66582;SHT31;53438;48.898;2.308;2022-12-15T19:13:57;1.68;69.99
66582;SHT31;53438;48.898;2.308;2022-12-15T19:16:22;1.68;70.07
66582;SHT31;53438;48.898;2.308;2022-12-15T19:18:48;1.81;69.68
66582;SHT31;53438;48.898;2.308;2022-12-15T19:21:34;1.72;69.74
66582;SHT31;53438;48.898;2.308;2022-12-15T19:24:11;1.78;69.57
66582;SHT31;53438;48.898;2.308;2022-12-15T19:26:37;1.75;69.77
66582;SHT31;53438;48.898;2.308;2022-12-15T19:29:18;1.72;69.27
66582;SHT31;53438;48.898;2.308;2022-12-15T19:31:47;1.69;69.57
66582;SHT31;53438;48.898;2.308;2022-12-15T19:34:13;1.68;69.72
66582;SHT31;53438;48.898;2.308;2022-12-15T19:36:39;1.65;69.48
66582;SHT31;53438;48.898;2.308;2022-12-15T19:39:05;1.65;69.33
66582;SHT31;53438;48.898;2.308;2022-12-15T19:41:33;1.59;69.66
66582;SHT31;53438;48.898;2.308;2022-12-15T19:43:59;1.62;69.45
66582;SHT31;53438;48.898;2.308;2022-12-15T19:46:25;1.38;69.76
66582;SHT31;53438;48.898;2.308;2022-12-15T19:48:51;1.31;70.14
66582;SHT31;53438;48.898;2.308;2022-12-15T19:51:19;1.41;70.11
66582;SHT31;53438;48.898;2.308;2022-12-15T19:53:46;1.46;69.78
66582;SHT31;53438;48.898;2.308;2022-12-15T19:56:15;1.57;69.37
66582;SHT31;53438;48.898;2.308;2022-12-15T19:58:41;1.51;69.50
66582;SHT31;53438;48.898;2.308;2022-12-15T20:01:11;1.48;69.65
66582;SHT31;53438;48.898;2.308;2022-12-15T20:03:39;1.46;69.90
66582;SHT31;53438;48.898;2.308;2022-12-15T20:06:14;1.48;69.65
66582;SHT31;53438;48.898;2.308;2022-12-15T20:08:42;1.57;69.53
66582;SHT31;53438;48.898;2.308;2022-12-15T20:11:18;1.54;69.49
66582;SHT31;53438;48.898;2.308;2022-12-15T20:13:44;1.50;69.40
66582;SHT31;53438;48.898;2.308;2022-12-15T20:16:10;1.51;69.49
66582;SHT31;53438;48.898;2.308;2022-12-15T20:18:39;1.51;69.46
66582;SHT31;53438;48.898;2.308;2022-12-15T20:21:05;1.46;69.83
66582;SHT31;53438;48.898;2.308;2022-12-15T20:23:30;1.47;69.72
66582;SHT31;53438;48.898;2.308;2022-12-15T20:25:56;1.44;69.76
66582;SHT31;53438;48.898;2.308;2022-12-15T20:28:25;1.46;69.68
66582;SHT31;53438;48.898;2.308;2022-12-15T20:30:52;1.47;69.76